Startpagina
METAR-TAF:

METAR-TAF

Vliegvelden :

Vliegbasis Chièvres

Chièvres, België

breedte: 50-34N, lengte: 003-50E, hoogte: 60 m

Actueel weer

Dit bericht is 20 minuten geleden gemaakt, om 21:55 UTC
Wind 3 kt uit het zuidwesten
Temperatuur 18°C
Vochtigheid 77%
Druk 1014 hPa
Zicht 10 km of meer

METAR: EBCV 162155Z AUTO 22003KT 9999 FEW100/// 18/14 Q1014 BLU

Tijdstip: 00:15 (22:15 UTC)

Verwachting

Dit bericht is 6 uur en het 34 minuten geleden gemaakt, om 15:41 UTC
Verwachting geldig van 16 om 19 UTC tot 17 om 07 UTC
Wind 6 kt uit het noordwesten
Zicht 10 km of meer
Verspreide wolken op 8000 ft
Verspreide wolken op 22000 ft
Wijzigt naar
van 17 om 01 UTC tot 17 om 03 UTC
Wind 6 kt uit het westzuidwesten
Weinig wolken op 5000 ft
Verspreide wolken op 10000 ft

TAF: EBCV 161541Z 1619/1707 31006KT 9999 SCT080 SCT220 BECMG 1701/1703 25006KT FEW050 SCT100 BY EBWM

Waarnemingen en weersverwachtingen van meer dan 4000 vliegvelden (METAR en TAF).

De beschikbare stations zijn de gele en rode punten op de kaart.

Ga met uw muis naar het station om de naam te zien.

Klik dan om waarnemingen en weersverwachtingen te zien.

kaart wijzigen: klik op de groene knoppen met een zwart kruis om in te zoomen, op de groene knop met een streepje om uit te zoomen of op de groene pijlen voor aangrenzende kaarten.


METAR-TAF: